Spartansburg, Pennsylvania
Current Conditions -  °F | °C
As of 4:53 PM on Tuesday 25 Nov 2014 (Local Time) from KGKJ Reporting Station
Overcast Overcast  
Wind Chill: 25°   Ceiling: 2800
Heat Index: 34°   Visibility: 10mi
Dew Point: 25°   Wind: 13mph
Humidity: 70%   Direction: 260°W
Pressure: 30.07"   Gusts: NA
Location:  41.82°N, 79.68°W
Report Text: KGKJ 252153Z AUTO 26011KT 10SM OVC028 01/M04 A3007 RMK AO2 SLP196 T00111039 TSNO
Loading
Personal Weather Stations






























Interactive Weather Map New forecast layout! Learn more

10-Day Weather Forecast

Advertisements
Track Severe Weather on mobile